Accord, Massachusetts
Current Conditions -  °F | °C
As of 2:55 AM on Thursday 27 Nov 2014 (Local Time) from KGHG Reporting Station
Haze Haze  
Wind Chill: 26°   Ceiling: 1100
Heat Index: 36°   Visibility: 4mi
Dew Point: 34°   Wind: 16mph
Humidity: 93%   Direction: 330°NNW
Pressure: 29.72"   Gusts: 26mph
Location:  42.17°N, 70.88°W
Report Text: KGHG 270755Z AUTO 33014G23KT 010V350 4SM BR OVC011 02/01 A2972 RMK AO2 P0002
Loading
Personal Weather Stations






























Interactive Weather Map New forecast layout! Learn more

10-Day Weather Forecast

Advertisements
Track Severe Weather on mobile